sensor_id;sensor_type;location;lat;lon;timestamp;P1;durP1;ratioP1;P2;durP2;ratioP2
70132;SDS011;57495;49.922;7.966;2023-11-19T00:01:55;2.23;;;0.37;;
70132;SDS011;57495;49.922;7.966;2023-11-19T00:03:57;2.33;;;0.52;;
70132;SDS011;57495;49.922;7.966;2023-11-19T00:05:59;2.30;;;0.22;;
70132;SDS011;57495;49.922;7.966;2023-11-19T00:08:00;2.20;;;0.50;;
70132;SDS011;57495;49.922;7.966;2023-11-19T00:10:02;1.73;;;0.30;;
70132;SDS011;57495;49.922;7.966;2023-11-19T00:12:08;1.45;;;0.25;;
70132;SDS011;57495;49.922;7.966;2023-11-19T00:14:09;2.17;;;0.43;;
70132;SDS011;57495;49.922;7.966;2023-11-19T00:16:11;1.80;;;0.20;;
70132;SDS011;57495;49.922;7.966;2023-11-19T00:18:12;2.17;;;0.47;;
70132;SDS011;57495;49.922;7.966;2023-11-19T00:20:15;1.60;;;0.40;;
70132;SDS011;57495;49.922;7.966;2023-11-19T00:22:17;2.10;;;0.30;;
70132;SDS011;57495;49.922;7.966;2023-11-19T00:24:20;2.28;;;0.30;;
70132;SDS011;57495;49.922;7.966;2023-11-19T00:26:22;1.90;;;0.13;;
70132;SDS011;57495;49.922;7.966;2023-11-19T00:28:24;1.38;;;0.28;;
70132;SDS011;57495;49.922;7.966;2023-11-19T00:30:26;1.20;;;0.20;;
70132;SDS011;57495;49.922;7.966;2023-11-19T00:32:26;1.70;;;0.20;;
70132;SDS011;57495;49.922;7.966;2023-11-19T00:34:28;1.67;;;0.23;;
70132;SDS011;57495;49.922;7.966;2023-11-19T00:36:29;2.10;;;0.10;;
70132;SDS011;57495;49.922;7.966;2023-11-19T00:38:31;2.05;;;0.32;;
70132;SDS011;57495;49.922;7.966;2023-11-19T00:40:32;1.63;;;0.25;;
70132;SDS011;57495;49.922;7.966;2023-11-19T00:42:33;1.35;;;0.30;;
70132;SDS011;57495;49.922;7.966;2023-11-19T00:44:35;1.50;;;0.30;;
70132;SDS011;57495;49.922;7.966;2023-11-19T00:46:37;2.85;;;0.30;;
70132;SDS011;57495;49.922;7.966;2023-11-19T00:48:38;1.10;;;0.20;;
70132;SDS011;57495;49.922;7.966;2023-11-19T00:50:39;2.22;;;0.30;;
70132;SDS011;57495;49.922;7.966;2023-11-19T00:52:44;1.42;;;0.20;;
70132;SDS011;57495;49.922;7.966;2023-11-19T00:54:45;1.77;;;0.22;;
70132;SDS011;57495;49.922;7.966;2023-11-19T00:56:46;1.73;;;0.30;;
70132;SDS011;57495;49.922;7.966;2023-11-19T00:58:47;2.53;;;0.27;;
70132;SDS011;57495;49.922;7.966;2023-11-19T01:00:49;2.25;;;0.30;;
70132;SDS011;57495;49.922;7.966;2023-11-19T01:02:50;1.60;;;0.20;;
70132;SDS011;57495;49.922;7.966;2023-11-19T01:04:52;0.98;;;0.10;;
70132;SDS011;57495;49.922;7.966;2023-11-19T01:06:52;1.00;;;0.20;;
70132;SDS011;57495;49.922;7.966;2023-11-19T01:08:54;1.20;;;0.10;;
70132;SDS011;57495;49.922;7.966;2023-11-19T01:10:57;1.10;;;0.10;;
70132;SDS011;57495;49.922;7.966;2023-11-19T01:12:59;1.52;;;0.17;;
70132;SDS011;57495;49.922;7.966;2023-11-19T01:15:01;1.40;;;0.10;;
70132;SDS011;57495;49.922;7.966;2023-11-19T01:17:04;1.48;;;0.10;;
70132;SDS011;57495;49.922;7.966;2023-11-19T01:19:05;1.33;;;0.13;;
70132;SDS011;57495;49.922;7.966;2023-11-19T01:21:07;1.73;;;0.10;;
70132;SDS011;57495;49.922;7.966;2023-11-19T01:23:08;1.88;;;0.20;;
70132;SDS011;57495;49.922;7.966;2023-11-19T01:25:10;1.58;;;0.30;;
70132;SDS011;57495;49.922;7.966;2023-11-19T01:27:11;1.30;;;0.20;;
70132;SDS011;57495;49.922;7.966;2023-11-19T01:29:13;1.15;;;0.10;;
70132;SDS011;57495;49.922;7.966;2023-11-19T01:31:15;3.10;;;0.20;;
70132;SDS011;57495;49.922;7.966;2023-11-19T01:33:18;2.03;;;0.20;;
70132;SDS011;57495;49.922;7.966;2023-11-19T01:35:19;1.70;;;0.30;;
70132;SDS011;57495;49.922;7.966;2023-11-19T01:37:20;0.93;;;0.10;;
70132;SDS011;57495;49.922;7.966;2023-11-19T01:39:21;0.77;;;0.15;;
70132;SDS011;57495;49.922;7.966;2023-11-19T01:41:23;1.03;;;0.10;;
70132;SDS011;57495;49.922;7.966;2023-11-19T01:43:31;2.35;;;0.20;;
70132;SDS011;57495;49.922;7.966;2023-11-19T01:45:36;0.80;;;0.20;;
70132;SDS011;57495;49.922;7.966;2023-11-19T01:47:37;4.18;;;0.10;;
70132;SDS011;57495;49.922;7.966;2023-11-19T01:49:40;0.90;;;0.10;;
70132;SDS011;57495;49.922;7.966;2023-11-19T01:51:41;1.10;;;0.20;;
70132;SDS011;57495;49.922;7.966;2023-11-19T01:53:43;5.75;;;0.35;;
70132;SDS011;57495;49.922;7.966;2023-11-19T01:55:45;1.13;;;0.20;;
70132;SDS011;57495;49.922;7.966;2023-11-19T01:57:48;3.13;;;0.20;;
70132;SDS011;57495;49.922;7.966;2023-11-19T01:59:51;1.00;;;0.10;;
70132;SDS011;57495;49.922;7.966;2023-11-19T02:01:54;1.57;;;0.37;;
70132;SDS011;57495;49.922;7.966;2023-11-19T02:03:57;0.85;;;0.17;;
70132;SDS011;57495;49.922;7.966;2023-11-19T02:06:00;1.42;;;0.10;;
70132;SDS011;57495;49.922;7.966;2023-11-19T02:08:02;0.90;;;0.10;;
70132;SDS011;57495;49.922;7.966;2023-11-19T02:10:04;1.00;;;0.10;;
70132;SDS011;57495;49.922;7.966;2023-11-19T02:12:12;0.90;;;0.10;;
70132;SDS011;57495;49.922;7.966;2023-11-19T02:14:14;1.20;;;0.13;;
70132;SDS011;57495;49.922;7.966;2023-11-19T02:16:15;0.90;;;0.13;;
70132;SDS011;57495;49.922;7.966;2023-11-19T02:18:20;2.13;;;0.13;;
70132;SDS011;57495;49.922;7.966;2023-11-19T02:20:22;1.25;;;0.20;;
70132;SDS011;57495;49.922;7.966;2023-11-19T02:22:27;1.30;;;0.20;;
70132;SDS011;57495;49.922;7.966;2023-11-19T02:24:29;1.65;;;0.30;;
70132;SDS011;57495;49.922;7.966;2023-11-19T02:26:36;1.50;;;0.28;;
70132;SDS011;57495;49.922;7.966;2023-11-19T02:28:42;4.20;;;0.10;;
70132;SDS011;57495;49.922;7.966;2023-11-19T02:30:43;1.60;;;0.20;;
70132;SDS011;57495;49.922;7.966;2023-11-19T02:32:45;1.38;;;0.10;;
70132;SDS011;57495;49.922;7.966;2023-11-19T02:34:46;1.20;;;0.10;;
70132;SDS011;57495;49.922;7.966;2023-11-19T02:36:47;1.50;;;0.20;;
70132;SDS011;57495;49.922;7.966;2023-11-19T02:38:49;1.53;;;0.20;;
70132;SDS011;57495;49.922;7.966;2023-11-19T02:40:51;0.75;;;0.10;;
70132;SDS011;57495;49.922;7.966;2023-11-19T02:42:52;1.00;;;0.10;;
70132;SDS011;57495;49.922;7.966;2023-11-19T02:44:55;1.52;;;0.15;;
70132;SDS011;57495;49.922;7.966;2023-11-19T02:46:57;1.48;;;0.17;;
70132;SDS011;57495;49.922;7.966;2023-11-19T02:48:59;1.00;;;0.10;;
70132;SDS011;57495;49.922;7.966;2023-11-19T02:51:00;1.60;;;0.20;;
70132;SDS011;57495;49.922;7.966;2023-11-19T02:53:03;2.50;;;0.20;;
70132;SDS011;57495;49.922;7.966;2023-11-19T02:55:04;1.20;;;0.40;;
70132;SDS011;57495;49.922;7.966;2023-11-19T02:57:09;2.03;;;0.30;;
70132;SDS011;57495;49.922;7.966;2023-11-19T02:59:12;2.25;;;0.15;;
70132;SDS011;57495;49.922;7.966;2023-11-19T03:01:28;1.60;;;0.22;;
70132;SDS011;57495;49.922;7.966;2023-11-19T03:03:30;1.17;;;0.20;;
70132;SDS011;57495;49.922;7.966;2023-11-19T03:05:38;1.92;;;0.30;;
70132;SDS011;57495;49.922;7.966;2023-11-19T03:07:41;1.50;;;0.20;;
70132;SDS011;57495;49.922;7.966;2023-11-19T03:09:43;1.20;;;0.20;;
70132;SDS011;57495;49.922;7.966;2023-11-19T03:11:45;1.40;;;0.20;;
70132;SDS011;57495;49.922;7.966;2023-11-19T03:13:46;1.43;;;0.10;;
70132;SDS011;57495;49.922;7.966;2023-11-19T03:15:48;1.38;;;0.10;;
70132;SDS011;57495;49.922;7.966;2023-11-19T03:17:50;1.48;;;0.20;;
70132;SDS011;57495;49.922;7.966;2023-11-19T03:19:51;2.13;;;0.13;;
70132;SDS011;57495;49.922;7.966;2023-11-19T03:21:53;1.65;;;0.20;;
70132;SDS011;57495;49.922;7.966;2023-11-19T03:23:54;1.93;;;0.20;;
70132;SDS011;57495;49.922;7.966;2023-11-19T03:25:55;1.10;;;0.10;;
70132;SDS011;57495;49.922;7.966;2023-11-19T03:27:57;1.20;;;0.20;;
70132;SDS011;57495;49.922;7.966;2023-11-19T03:29:59;2.03;;;0.10;;
70132;SDS011;57495;49.922;7.966;2023-11-19T03:32:00;1.38;;;0.10;;
70132;SDS011;57495;49.922;7.966;2023-11-19T03:34:03;1.20;;;0.10;;
70132;SDS011;57495;49.922;7.966;2023-11-19T03:36:05;2.10;;;0.20;;
70132;SDS011;57495;49.922;7.966;2023-11-19T03:38:07;2.33;;;0.30;;
70132;SDS011;57495;49.922;7.966;2023-11-19T03:40:09;1.52;;;0.20;;
70132;SDS011;57495;49.922;7.966;2023-11-19T03:42:11;1.52;;;0.20;;
70132;SDS011;57495;49.922;7.966;2023-11-19T03:44:13;2.13;;;0.20;;
70132;SDS011;57495;49.922;7.966;2023-11-19T03:46:18;2.33;;;0.40;;
70132;SDS011;57495;49.922;7.966;2023-11-19T03:48:18;1.55;;;0.20;;
70132;SDS011;57495;49.922;7.966;2023-11-19T03:50:21;1.95;;;0.20;;
70132;SDS011;57495;49.922;7.966;2023-11-19T03:52:22;2.10;;;0.30;;
70132;SDS011;57495;49.922;7.966;2023-11-19T03:54:23;2.20;;;0.30;;
70132;SDS011;57495;49.922;7.966;2023-11-19T03:56:24;1.83;;;0.20;;
70132;SDS011;57495;49.922;7.966;2023-11-19T03:58:27;1.90;;;0.35;;
70132;SDS011;57495;49.922;7.966;2023-11-19T04:00:28;1.75;;;0.30;;
70132;SDS011;57495;49.922;7.966;2023-11-19T04:02:30;2.72;;;0.30;;
70132;SDS011;57495;49.922;7.966;2023-11-19T04:04:31;1.52;;;0.22;;
70132;SDS011;57495;49.922;7.966;2023-11-19T04:06:35;2.67;;;0.17;;
70132;SDS011;57495;49.922;7.966;2023-11-19T04:08:36;5.20;;;0.40;;
70132;SDS011;57495;49.922;7.966;2023-11-19T04:10:37;1.85;;;0.20;;
70132;SDS011;57495;49.922;7.966;2023-11-19T04:12:39;2.58;;;0.40;;
70132;SDS011;57495;49.922;7.966;2023-11-19T04:14:40;1.77;;;0.20;;
70132;SDS011;57495;49.922;7.966;2023-11-19T04:16:41;2.30;;;0.28;;
70132;SDS011;57495;49.922;7.966;2023-11-19T04:18:42;1.27;;;0.20;;
70132;SDS011;57495;49.922;7.966;2023-11-19T04:20:44;1.77;;;0.30;;
70132;SDS011;57495;49.922;7.966;2023-11-19T04:22:47;2.30;;;0.28;;
70132;SDS011;57495;49.922;7.966;2023-11-19T04:24:48;1.88;;;0.35;;
70132;SDS011;57495;49.922;7.966;2023-11-19T04:26:50;1.27;;;0.20;;
70132;SDS011;57495;49.922;7.966;2023-11-19T04:28:53;1.70;;;0.37;;
70132;SDS011;57495;49.922;7.966;2023-11-19T04:30:55;2.40;;;0.20;;
70132;SDS011;57495;49.922;7.966;2023-11-19T04:32:55;1.40;;;0.17;;
70132;SDS011;57495;49.922;7.966;2023-11-19T04:34:56;2.10;;;0.20;;
70132;SDS011;57495;49.922;7.966;2023-11-19T04:36:57;2.72;;;0.40;;
70132;SDS011;57495;49.922;7.966;2023-11-19T04:39:03;2.33;;;0.20;;
70132;SDS011;57495;49.922;7.966;2023-11-19T04:41:09;1.80;;;0.20;;
70132;SDS011;57495;49.922;7.966;2023-11-19T04:43:11;1.45;;;0.28;;
70132;SDS011;57495;49.922;7.966;2023-11-19T04:45:13;2.85;;;0.38;;
70132;SDS011;57495;49.922;7.966;2023-11-19T04:47:14;1.23;;;0.20;;
70132;SDS011;57495;49.922;7.966;2023-11-19T04:49:15;1.63;;;0.20;;
70132;SDS011;57495;49.922;7.966;2023-11-19T04:51:16;3.10;;;0.30;;
70132;SDS011;57495;49.922;7.966;2023-11-19T04:53:18;2.30;;;0.20;;
70132;SDS011;57495;49.922;7.966;2023-11-19T04:55:21;1.58;;;0.17;;
70132;SDS011;57495;49.922;7.966;2023-11-19T04:57:22;2.05;;;0.38;;
70132;SDS011;57495;49.922;7.966;2023-11-19T04:59:24;1.30;;;0.20;;
70132;SDS011;57495;49.922;7.966;2023-11-19T05:01:25;1.98;;;0.50;;
70132;SDS011;57495;49.922;7.966;2023-11-19T05:03:26;1.73;;;0.20;;
70132;SDS011;57495;49.922;7.966;2023-11-19T05:05:28;1.70;;;0.20;;
70132;SDS011;57495;49.922;7.966;2023-11-19T05:07:30;2.20;;;0.30;;
70132;SDS011;57495;49.922;7.966;2023-11-19T05:09:31;1.52;;;0.15;;
70132;SDS011;57495;49.922;7.966;2023-11-19T05:11:34;2.92;;;0.50;;
70132;SDS011;57495;49.922;7.966;2023-11-19T05:13:36;1.73;;;0.20;;
70132;SDS011;57495;49.922;7.966;2023-11-19T05:15:37;2.88;;;0.25;;
70132;SDS011;57495;49.922;7.966;2023-11-19T05:17:38;2.20;;;0.30;;
70132;SDS011;57495;49.922;7.966;2023-11-19T05:19:39;1.57;;;0.20;;
70132;SDS011;57495;49.922;7.966;2023-11-19T05:21:41;3.22;;;0.40;;
70132;SDS011;57495;49.922;7.966;2023-11-19T05:23:43;2.20;;;0.35;;
70132;SDS011;57495;49.922;7.966;2023-11-19T05:25:44;2.10;;;0.32;;
70132;SDS011;57495;49.922;7.966;2023-11-19T05:27:47;2.30;;;0.50;;
70132;SDS011;57495;49.922;7.966;2023-11-19T05:29:48;2.13;;;0.40;;
70132;SDS011;57495;49.922;7.966;2023-11-19T05:31:50;3.33;;;0.50;;
70132;SDS011;57495;49.922;7.966;2023-11-19T05:33:51;2.55;;;0.40;;
70132;SDS011;57495;49.922;7.966;2023-11-19T05:35:51;2.23;;;0.40;;
70132;SDS011;57495;49.922;7.966;2023-11-19T05:37:53;2.30;;;0.52;;
70132;SDS011;57495;49.922;7.966;2023-11-19T05:39:56;3.88;;;0.30;;
70132;SDS011;57495;49.922;7.966;2023-11-19T05:41:57;2.28;;;0.47;;
70132;SDS011;57495;49.922;7.966;2023-11-19T05:44:00;2.63;;;0.40;;
70132;SDS011;57495;49.922;7.966;2023-11-19T05:46:01;1.90;;;0.30;;
70132;SDS011;57495;49.922;7.966;2023-11-19T05:48:03;2.15;;;0.43;;
70132;SDS011;57495;49.922;7.966;2023-11-19T05:50:05;2.00;;;0.30;;
70132;SDS011;57495;49.922;7.966;2023-11-19T05:52:07;2.92;;;0.50;;
70132;SDS011;57495;49.922;7.966;2023-11-19T05:54:09;2.40;;;0.40;;
70132;SDS011;57495;49.922;7.966;2023-11-19T05:56:11;2.00;;;0.30;;
70132;SDS011;57495;49.922;7.966;2023-11-19T05:58:13;2.10;;;0.50;;
70132;SDS011;57495;49.922;7.966;2023-11-19T06:00:16;2.15;;;0.30;;
70132;SDS011;57495;49.922;7.966;2023-11-19T06:02:18;3.50;;;0.50;;
70132;SDS011;57495;49.922;7.966;2023-11-19T06:04:19;2.50;;;0.40;;
70132;SDS011;57495;49.922;7.966;2023-11-19T06:06:21;2.70;;;0.60;;
70132;SDS011;57495;49.922;7.966;2023-11-19T06:08:22;3.47;;;0.73;;
70132;SDS011;57495;49.922;7.966;2023-11-19T06:10:24;3.55;;;0.70;;
70132;SDS011;57495;49.922;7.966;2023-11-19T06:12:30;2.88;;;0.70;;
70132;SDS011;57495;49.922;7.966;2023-11-19T06:14:33;2.63;;;0.60;;
70132;SDS011;57495;49.922;7.966;2023-11-19T06:16:36;3.60;;;0.80;;
70132;SDS011;57495;49.922;7.966;2023-11-19T06:18:39;2.90;;;0.60;;
70132;SDS011;57495;49.922;7.966;2023-11-19T06:20:41;3.00;;;0.63;;
70132;SDS011;57495;49.922;7.966;2023-11-19T06:22:43;3.67;;;0.98;;
70132;SDS011;57495;49.922;7.966;2023-11-19T06:24:45;2.90;;;0.85;;
70132;SDS011;57495;49.922;7.966;2023-11-19T06:26:47;2.70;;;0.75;;
70132;SDS011;57495;49.922;7.966;2023-11-19T06:28:49;3.25;;;0.98;;
70132;SDS011;57495;49.922;7.966;2023-11-19T06:30:50;3.17;;;0.75;;
70132;SDS011;57495;49.922;7.966;2023-11-19T06:32:52;3.83;;;1.00;;
70132;SDS011;57495;49.922;7.966;2023-11-19T06:34:53;4.22;;;1.02;;
70132;SDS011;57495;49.922;7.966;2023-11-19T06:36:54;3.70;;;1.37;;
70132;SDS011;57495;49.922;7.966;2023-11-19T06:38:57;3.45;;;1.13;;
70132;SDS011;57495;49.922;7.966;2023-11-19T06:40:58;3.13;;;0.80;;
70132;SDS011;57495;49.922;7.966;2023-11-19T06:43:00;3.13;;;0.77;;
70132;SDS011;57495;49.922;7.966;2023-11-19T06:45:03;3.00;;;0.80;;
70132;SDS011;57495;49.922;7.966;2023-11-19T06:47:06;3.38;;;0.85;;
70132;SDS011;57495;49.922;7.966;2023-11-19T06:49:08;3.72;;;1.08;;
70132;SDS011;57495;49.922;7.966;2023-11-19T06:51:09;3.93;;;1.20;;
70132;SDS011;57495;49.922;7.966;2023-11-19T06:53:10;3.22;;;1.00;;
70132;SDS011;57495;49.922;7.966;2023-11-19T06:55:11;4.43;;;0.98;;
70132;SDS011;57495;49.922;7.966;2023-11-19T06:57:13;3.23;;;0.90;;
70132;SDS011;57495;49.922;7.966;2023-11-19T06:59:15;2.92;;;0.80;;
70132;SDS011;57495;49.922;7.966;2023-11-19T07:01:17;4.28;;;1.05;;
70132;SDS011;57495;49.922;7.966;2023-11-19T07:03:19;4.03;;;1.00;;
70132;SDS011;57495;49.922;7.966;2023-11-19T07:05:22;5.53;;;0.97;;
70132;SDS011;57495;49.922;7.966;2023-11-19T07:07:24;3.63;;;1.10;;
70132;SDS011;57495;49.922;7.966;2023-11-19T07:09:26;3.95;;;0.93;;
70132;SDS011;57495;49.922;7.966;2023-11-19T07:11:27;3.58;;;1.10;;
70132;SDS011;57495;49.922;7.966;2023-11-19T07:13:29;3.30;;;1.10;;
70132;SDS011;57495;49.922;7.966;2023-11-19T07:15:31;3.47;;;1.13;;
70132;SDS011;57495;49.922;7.966;2023-11-19T07:17:33;2.67;;;0.82;;
70132;SDS011;57495;49.922;7.966;2023-11-19T07:19:35;5.65;;;0.60;;
70132;SDS011;57495;49.922;7.966;2023-11-19T07:21:42;3.05;;;1.08;;
70132;SDS011;57495;49.922;7.966;2023-11-19T07:23:44;2.90;;;0.80;;
70132;SDS011;57495;49.922;7.966;2023-11-19T07:25:45;3.07;;;0.60;;
70132;SDS011;57495;49.922;7.966;2023-11-19T07:27:47;3.05;;;0.70;;
70132;SDS011;57495;49.922;7.966;2023-11-19T07:29:49;2.50;;;0.50;;
70132;SDS011;57495;49.922;7.966;2023-11-19T07:31:51;2.40;;;0.80;;
70132;SDS011;57495;49.922;7.966;2023-11-19T07:33:52;3.20;;;0.50;;
70132;SDS011;57495;49.922;7.966;2023-11-19T07:35:54;3.80;;;0.80;;
70132;SDS011;57495;49.922;7.966;2023-11-19T07:37:58;3.00;;;0.70;;
70132;SDS011;57495;49.922;7.966;2023-11-19T07:39:59;3.80;;;0.57;;
70132;SDS011;57495;49.922;7.966;2023-11-19T07:42:00;2.63;;;0.70;;
70132;SDS011;57495;49.922;7.966;2023-11-19T07:44:02;2.83;;;0.85;;
70132;SDS011;57495;49.922;7.966;2023-11-19T07:46:04;3.57;;;0.70;;
70132;SDS011;57495;49.922;7.966;2023-11-19T07:48:08;2.90;;;0.60;;
70132;SDS011;57495;49.922;7.966;2023-11-19T07:50:10;3.78;;;0.57;;
70132;SDS011;57495;49.922;7.966;2023-11-19T07:52:13;7.13;;;1.02;;
70132;SDS011;57495;49.922;7.966;2023-11-19T07:54:16;3.97;;;1.15;;
70132;SDS011;57495;49.922;7.966;2023-11-19T07:56:17;3.50;;;0.80;;
70132;SDS011;57495;49.922;7.966;2023-11-19T07:58:19;3.67;;;0.70;;
70132;SDS011;57495;49.922;7.966;2023-11-19T08:00:20;4.90;;;0.50;;
70132;SDS011;57495;49.922;7.966;2023-11-19T08:02:21;2.38;;;0.70;;
70132;SDS011;57495;49.922;7.966;2023-11-19T08:04:23;4.35;;;0.80;;
70132;SDS011;57495;49.922;7.966;2023-11-19T08:06:25;5.17;;;0.70;;
70132;SDS011;57495;49.922;7.966;2023-11-19T08:08:25;3.30;;;0.50;;
70132;SDS011;57495;49.922;7.966;2023-11-19T08:10:30;4.15;;;0.70;;
70132;SDS011;57495;49.922;7.966;2023-11-19T08:12:33;3.45;;;0.82;;
70132;SDS011;57495;49.922;7.966;2023-11-19T08:14:35;4.45;;;0.70;;
70132;SDS011;57495;49.922;7.966;2023-11-19T08:16:36;4.15;;;0.82;;
70132;SDS011;57495;49.922;7.966;2023-11-19T08:18:41;4.07;;;0.82;;
70132;SDS011;57495;49.922;7.966;2023-11-19T08:20:44;6.00;;;0.70;;
70132;SDS011;57495;49.922;7.966;2023-11-19T08:22:49;3.65;;;0.80;;
70132;SDS011;57495;49.922;7.966;2023-11-19T08:24:50;5.85;;;1.10;;
70132;SDS011;57495;49.922;7.966;2023-11-19T08:26:52;5.50;;;1.07;;
70132;SDS011;57495;49.922;7.966;2023-11-19T08:28:54;5.15;;;0.70;;
70132;SDS011;57495;49.922;7.966;2023-11-19T08:30:55;5.47;;;1.35;;
70132;SDS011;57495;49.922;7.966;2023-11-19T08:32:56;6.70;;;1.10;;
70132;SDS011;57495;49.922;7.966;2023-11-19T08:34:58;4.47;;;0.85;;
70132;SDS011;57495;49.922;7.966;2023-11-19T08:37:00;5.18;;;1.00;;
70132;SDS011;57495;49.922;7.966;2023-11-19T08:39:01;4.82;;;0.80;;
70132;SDS011;57495;49.922;7.966;2023-11-19T08:41:03;4.43;;;0.70;;
70132;SDS011;57495;49.922;7.966;2023-11-19T08:43:06;5.85;;;1.05;;
70132;SDS011;57495;49.922;7.966;2023-11-19T08:45:08;6.70;;;0.70;;
70132;SDS011;57495;49.922;7.966;2023-11-19T08:47:11;4.15;;;0.70;;
70132;SDS011;57495;49.922;7.966;2023-11-19T08:49:12;5.72;;;0.93;;
70132;SDS011;57495;49.922;7.966;2023-11-19T08:51:14;5.38;;;0.85;;
70132;SDS011;57495;49.922;7.966;2023-11-19T08:53:15;7.43;;;2.20;;
70132;SDS011;57495;49.922;7.966;2023-11-19T08:55:17;6.03;;;1.00;;
70132;SDS011;57495;49.922;7.966;2023-11-19T08:57:19;10.48;;;1.70;;
70132;SDS011;57495;49.922;7.966;2023-11-19T08:59:21;7.75;;;1.17;;
70132;SDS011;57495;49.922;7.966;2023-11-19T09:01:23;8.70;;;0.80;;
70132;SDS011;57495;49.922;7.966;2023-11-19T09:03:25;5.93;;;0.93;;
70132;SDS011;57495;49.922;7.966;2023-11-19T09:05:26;6.13;;;0.90;;
70132;SDS011;57495;49.922;7.966;2023-11-19T09:07:27;6.50;;;0.60;;
70132;SDS011;57495;49.922;7.966;2023-11-19T09:09:28;6.70;;;0.73;;
70132;SDS011;57495;49.922;7.966;2023-11-19T09:11:31;9.52;;;1.50;;
70132;SDS011;57495;49.922;7.966;2023-11-19T09:13:33;4.37;;;0.90;;
70132;SDS011;57495;49.922;7.966;2023-11-19T09:15:35;7.40;;;0.82;;
70132;SDS011;57495;49.922;7.966;2023-11-19T09:17:37;6.28;;;0.73;;
70132;SDS011;57495;49.922;7.966;2023-11-19T09:19:38;10.18;;;0.93;;
70132;SDS011;57495;49.922;7.966;2023-11-19T09:21:39;5.55;;;0.80;;
70132;SDS011;57495;49.922;7.966;2023-11-19T09:23:41;8.43;;;1.73;;
70132;SDS011;57495;49.922;7.966;2023-11-19T09:25:43;9.57;;;1.33;;
70132;SDS011;57495;49.922;7.966;2023-11-19T09:27:45;9.35;;;1.05;;
70132;SDS011;57495;49.922;7.966;2023-11-19T09:29:46;7.88;;;1.10;;
70132;SDS011;57495;49.922;7.966;2023-11-19T09:31:51;7.40;;;0.55;;
70132;SDS011;57495;49.922;7.966;2023-11-19T09:33:52;4.97;;;0.67;;
70132;SDS011;57495;49.922;7.966;2023-11-19T09:35:53;5.63;;;0.70;;
70132;SDS011;57495;49.922;7.966;2023-11-19T09:37:54;5.37;;;1.10;;
70132;SDS011;57495;49.922;7.966;2023-11-19T09:39:55;8.27;;;1.10;;
70132;SDS011;57495;49.922;7.966;2023-11-19T09:41:57;6.80;;;0.75;;
70132;SDS011;57495;49.922;7.966;2023-11-19T09:43:58;7.75;;;0.90;;
70132;SDS011;57495;49.922;7.966;2023-11-19T09:46:00;7.25;;;0.65;;
70132;SDS011;57495;49.922;7.966;2023-11-19T09:48:07;5.07;;;0.50;;
70132;SDS011;57495;49.922;7.966;2023-11-19T09:50:10;9.80;;;0.98;;
70132;SDS011;57495;49.922;7.966;2023-11-19T09:52:15;7.22;;;0.90;;
70132;SDS011;57495;49.922;7.966;2023-11-19T09:54:16;6.95;;;0.80;;
70132;SDS011;57495;49.922;7.966;2023-11-19T09:56:18;6.50;;;0.55;;
70132;SDS011;57495;49.922;7.966;2023-11-19T09:58:20;5.30;;;0.70;;
70132;SDS011;57495;49.922;7.966;2023-11-19T10:00:21;8.38;;;0.85;;
70132;SDS011;57495;49.922;7.966;2023-11-19T10:02:23;6.80;;;0.75;;
70132;SDS011;57495;49.922;7.966;2023-11-19T10:04:28;6.68;;;0.80;;
70132;SDS011;57495;49.922;7.966;2023-11-19T10:06:31;7.55;;;0.73;;
70132;SDS011;57495;49.922;7.966;2023-11-19T10:08:32;5.17;;;0.60;;
70132;SDS011;57495;49.922;7.966;2023-11-19T10:10:34;4.53;;;0.77;;
70132;SDS011;57495;49.922;7.966;2023-11-19T10:12:35;4.75;;;1.38;;
70132;SDS011;57495;49.922;7.966;2023-11-19T10:14:37;5.95;;;0.70;;
70132;SDS011;57495;49.922;7.966;2023-11-19T10:16:39;7.53;;;1.17;;
70132;SDS011;57495;49.922;7.966;2023-11-19T10:18:43;10.57;;;1.50;;
70132;SDS011;57495;49.922;7.966;2023-11-19T10:20:47;7.68;;;1.42;;
70132;SDS011;57495;49.922;7.966;2023-11-19T10:22:52;7.93;;;1.02;;
70132;SDS011;57495;49.922;7.966;2023-11-19T10:24:53;6.53;;;0.90;;
70132;SDS011;57495;49.922;7.966;2023-11-19T10:26:56;7.53;;;0.82;;
70132;SDS011;57495;49.922;7.966;2023-11-19T10:28:57;5.80;;;1.67;;
70132;SDS011;57495;49.922;7.966;2023-11-19T10:30:59;7.28;;;1.77;;
70132;SDS011;57495;49.922;7.966;2023-11-19T10:33:04;7.30;;;1.60;;
70132;SDS011;57495;49.922;7.966;2023-11-19T10:35:07;5.10;;;1.00;;
70132;SDS011;57495;49.922;7.966;2023-11-19T10:37:10;7.53;;;1.40;;
70132;SDS011;57495;49.922;7.966;2023-11-19T10:39:33;5.33;;;0.60;;
70132;SDS011;57495;49.922;7.966;2023-11-19T10:41:53;8.18;;;0.70;;
70132;SDS011;57495;49.922;7.966;2023-11-19T10:43:54;6.97;;;1.17;;
70132;SDS011;57495;49.922;7.966;2023-11-19T10:46:08;4.93;;;0.45;;
70132;SDS011;57495;49.922;7.966;2023-11-19T10:48:11;4.70;;;0.77;;
70132;SDS011;57495;49.922;7.966;2023-11-19T10:50:13;5.60;;;0.80;;
70132;SDS011;57495;49.922;7.966;2023-11-19T10:52:17;6.80;;;0.65;;
70132;SDS011;57495;49.922;7.966;2023-11-19T10:54:19;5.18;;;1.00;;
70132;SDS011;57495;49.922;7.966;2023-11-19T10:56:21;5.45;;;0.77;;
70132;SDS011;57495;49.922;7.966;2023-11-19T10:58:26;5.30;;;0.80;;
70132;SDS011;57495;49.922;7.966;2023-11-19T11:00:30;3.67;;;0.70;;
70132;SDS011;57495;49.922;7.966;2023-11-19T11:02:39;5.22;;;0.60;;
70132;SDS011;57495;49.922;7.966;2023-11-19T11:04:42;5.80;;;0.52;;
70132;SDS011;57495;49.922;7.966;2023-11-19T11:06:47;7.53;;;0.75;;
70132;SDS011;57495;49.922;7.966;2023-11-19T11:08:49;5.88;;;0.80;;
70132;SDS011;57495;49.922;7.966;2023-11-19T11:10:52;6.87;;;1.23;;
70132;SDS011;57495;49.922;7.966;2023-11-19T11:12:54;4.82;;;0.60;;
70132;SDS011;57495;49.922;7.966;2023-11-19T11:15:00;5.45;;;0.47;;
70132;SDS011;57495;49.922;7.966;2023-11-19T11:17:03;6.32;;;0.60;;
70132;SDS011;57495;49.922;7.966;2023-11-19T11:19:07;6.93;;;0.65;;
70132;SDS011;57495;49.922;7.966;2023-11-19T11:21:11;4.03;;;0.70;;
70132;SDS011;57495;49.922;7.966;2023-11-19T11:23:26;6.70;;;0.60;;
70132;SDS011;57495;49.922;7.966;2023-11-19T11:25:40;6.15;;;0.77;;
70132;SDS011;57495;49.922;7.966;2023-11-19T11:27:57;5.05;;;0.50;;
70132;SDS011;57495;49.922;7.966;2023-11-19T11:30:09;5.57;;;1.20;;
70132;SDS011;57495;49.922;7.966;2023-11-19T11:32:21;7.93;;;0.80;;
70132;SDS011;57495;49.922;7.966;2023-11-19T11:34:37;4.43;;;0.40;;
70132;SDS011;57495;49.922;7.966;2023-11-19T11:36:53;4.75;;;0.50;;
70132;SDS011;57495;49.922;7.966;2023-11-19T11:39:03;4.53;;;0.60;;
70132;SDS011;57495;49.922;7.966;2023-11-19T11:41:19;6.43;;;0.40;;
70132;SDS011;57495;49.922;7.966;2023-11-19T11:45:46;5.90;;;0.68;;
70132;SDS011;57495;49.922;7.966;2023-11-19T11:48:04;5.72;;;0.63;;
70132;SDS011;57495;49.922;7.966;2023-11-19T11:50:09;7.47;;;0.60;;
70132;SDS011;57495;49.922;7.966;2023-11-19T11:52:12;5.72;;;0.70;;
70132;SDS011;57495;49.922;7.966;2023-11-19T11:54:25;9.75;;;0.95;;
70132;SDS011;57495;49.922;7.966;2023-11-19T11:56:33;7.22;;;0.98;;
70132;SDS011;57495;49.922;7.966;2023-11-19T11:58:38;7.18;;;0.88;;
70132;SDS011;57495;49.922;7.966;2023-11-19T12:00:42;7.07;;;0.57;;
70132;SDS011;57495;49.922;7.966;2023-11-19T12:02:43;6.40;;;0.60;;
70132;SDS011;57495;49.922;7.966;2023-11-19T12:04:49;6.90;;;0.67;;
70132;SDS011;57495;49.922;7.966;2023-11-19T12:07:02;7.30;;;0.80;;
70132;SDS011;57495;49.922;7.966;2023-11-19T12:09:04;4.85;;;0.63;;
70132;SDS011;57495;49.922;7.966;2023-11-19T12:11:07;7.40;;;1.15;;
70132;SDS011;57495;49.922;7.966;2023-11-19T12:13:10;9.77;;;1.38;;
70132;SDS011;57495;49.922;7.966;2023-11-19T12:15:12;6.32;;;1.05;;
70132;SDS011;57495;49.922;7.966;2023-11-19T12:19:40;4.20;;;0.40;;
70132;SDS011;57495;49.922;7.966;2023-11-19T12:21:43;4.18;;;0.50;;
70132;SDS011;57495;49.922;7.966;2023-11-19T12:23:45;8.13;;;0.95;;
70132;SDS011;57495;49.922;7.966;2023-11-19T12:25:49;7.53;;;0.97;;